sensor_id;sensor_type;location;lat;lon;timestamp;pressure;altitude;pressure_sealevel;temperature;humidity
74893;BME280;63446;56.272;43.922;2023-04-15T00:01:25;102093.53;;;0.45;32.47
74893;BME280;63446;56.272;43.922;2023-04-15T00:03:52;102086.88;;;0.42;32.55
74893;BME280;63446;56.272;43.922;2023-04-15T00:06:19;102091.09;;;0.35;32.79
74893;BME280;63446;56.272;43.922;2023-04-15T00:08:46;102092.69;;;0.36;32.82
74893;BME280;63446;56.272;43.922;2023-04-15T00:11:12;102081.50;;;0.36;32.79
74893;BME280;63446;56.272;43.922;2023-04-15T00:13:38;102094.97;;;0.31;33.01
74893;BME280;63446;56.272;43.922;2023-04-15T00:16:05;102092.03;;;0.34;32.87
74893;BME280;63446;56.272;43.922;2023-04-15T00:18:35;102093.81;;;0.34;32.94
74893;BME280;63446;56.272;43.922;2023-04-15T00:21:00;102094.13;;;0.22;33.25
74893;BME280;63446;56.272;43.922;2023-04-15T00:23:27;102096.41;;;0.26;33.08
74893;BME280;63446;56.272;43.922;2023-04-15T00:25:54;102101.59;;;0.26;33.20
74893;BME280;63446;56.272;43.922;2023-04-15T00:28:20;102112.00;;;0.26;33.14
74893;BME280;63446;56.272;43.922;2023-04-15T00:30:46;102105.31;;;0.23;33.25
74893;BME280;63446;56.272;43.922;2023-04-15T00:33:12;102100.13;;;0.23;33.05
74893;BME280;63446;56.272;43.922;2023-04-15T00:35:38;102101.28;;;0.20;33.13
74893;BME280;63446;56.272;43.922;2023-04-15T00:38:05;102107.75;;;0.16;33.50
74893;BME280;63446;56.272;43.922;2023-04-15T00:40:34;102097.66;;;0.13;33.48
74893;BME280;63446;56.272;43.922;2023-04-15T00:43:00;102097.34;;;0.08;33.54
74893;BME280;63446;56.272;43.922;2023-04-15T00:45:26;102111.44;;;0.06;33.66
74893;BME280;63446;56.272;43.922;2023-04-15T00:47:55;102114.22;;;0.04;33.63
74893;BME280;63446;56.272;43.922;2023-04-15T00:50:21;102108.16;;;0.04;33.68
74893;BME280;63446;56.272;43.922;2023-04-15T00:52:47;102113.72;;;0.01;33.81
74893;BME280;63446;56.272;43.922;2023-04-15T00:55:14;102120.53;;;0.02;33.63
74893;BME280;63446;56.272;43.922;2023-04-15T00:57:40;102111.75;;;0.03;33.57
74893;BME280;63446;56.272;43.922;2023-04-15T01:00:06;102120.53;;;0.02;33.64
74893;BME280;63446;56.272;43.922;2023-04-15T01:02:34;102117.25;;;-0.01;33.79
74893;BME280;63446;56.272;43.922;2023-04-15T01:05:01;102133.03;;;-0.02;33.84
74893;BME280;63446;56.272;43.922;2023-04-15T01:07:28;102134.81;;;-0.03;33.95
74893;BME280;63446;56.272;43.922;2023-04-15T01:09:55;102133.50;;;-0.07;34.03
74893;BME280;63446;56.272;43.922;2023-04-15T01:12:21;102138.19;;;-0.10;34.15
74893;BME280;63446;56.272;43.922;2023-04-15T01:14:49;102149.69;;;-0.13;34.29
74893;BME280;63446;56.272;43.922;2023-04-15T01:17:15;102127.28;;;-0.14;34.12
74893;BME280;63446;56.272;43.922;2023-04-15T01:19:41;102134.25;;;-0.14;34.18
74893;BME280;63446;56.272;43.922;2023-04-15T01:22:07;102131.00;;;-0.16;34.19
74893;BME280;63446;56.272;43.922;2023-04-15T01:24:32;102142.16;;;-0.24;34.30
74893;BME280;63446;56.272;43.922;2023-04-15T01:27:00;102136.66;;;-0.21;34.38
74893;BME280;63446;56.272;43.922;2023-04-15T01:29:26;102141.53;;;-0.18;34.12
74893;BME280;63446;56.272;43.922;2023-04-15T01:31:53;102138.44;;;-0.21;34.35
74893;BME280;63446;56.272;43.922;2023-04-15T01:34:37;102149.09;;;-0.33;34.74
74893;BME280;63446;56.272;43.922;2023-04-15T01:37:23;102153.69;;;-0.27;34.47
74893;BME280;63446;56.272;43.922;2023-04-15T01:39:49;102155.31;;;-0.26;34.48
74893;BME280;63446;56.272;43.922;2023-04-15T01:42:16;102155.94;;;-0.23;34.36
74893;BME280;63446;56.272;43.922;2023-04-15T01:44:43;102158.38;;;-0.30;34.67
74893;BME280;63446;56.272;43.922;2023-04-15T01:47:12;102157.19;;;-0.36;34.85
74893;BME280;63446;56.272;43.922;2023-04-15T01:49:39;102158.50;;;-0.32;34.66
74893;BME280;63446;56.272;43.922;2023-04-15T01:52:06;102158.88;;;-0.27;34.63
74893;BME280;63446;56.272;43.922;2023-04-15T01:54:33;102162.28;;;-0.26;34.63
74893;BME280;63446;56.272;43.922;2023-04-15T01:57:00;102162.00;;;-0.23;34.59
74893;BME280;63446;56.272;43.922;2023-04-15T01:59:29;102169.78;;;-0.23;34.67
74893;BME280;63446;56.272;43.922;2023-04-15T02:01:58;102163.09;;;-0.26;34.86
74893;BME280;63446;56.272;43.922;2023-04-15T02:04:27;102168.50;;;-0.19;34.66
74893;BME280;63446;56.272;43.922;2023-04-15T02:06:54;102175.69;;;-0.13;34.61
74893;BME280;63446;56.272;43.922;2023-04-15T02:09:21;102172.72;;;-0.18;34.74
74893;BME280;63446;56.272;43.922;2023-04-15T02:11:50;102178.13;;;-0.11;34.71
74893;BME280;63446;56.272;43.922;2023-04-15T02:14:18;102176.34;;;-0.11;34.75
74893;BME280;63446;56.272;43.922;2023-04-15T02:16:45;102179.81;;;-0.02;34.47
74893;BME280;63446;56.272;43.922;2023-04-15T02:19:15;102191.47;;;0.20;34.60
74893;BME280;63446;56.272;43.922;2023-04-15T02:21:43;102178.06;;;0.49;34.24
74893;BME280;63446;56.272;43.922;2023-04-15T02:24:10;102187.59;;;0.75;34.24
74893;BME280;63446;56.272;43.922;2023-04-15T02:26:41;102182.63;;;1.22;33.78
74893;BME280;63446;56.272;43.922;2023-04-15T02:29:08;102197.56;;;2.41;32.87
74893;BME280;63446;56.272;43.922;2023-04-15T02:31:35;102192.13;;;4.03;32.16
74893;BME280;63446;56.272;43.922;2023-04-15T02:34:05;102200.63;;;5.57;30.64
74893;BME280;63446;56.272;43.922;2023-04-15T02:36:33;102194.88;;;6.99;29.33
74893;BME280;63446;56.272;43.922;2023-04-15T02:39:00;102207.78;;;8.20;28.46
74893;BME280;63446;56.272;43.922;2023-04-15T02:41:28;102207.38;;;9.06;27.87
74893;BME280;63446;56.272;43.922;2023-04-15T02:43:56;102210.03;;;9.81;27.33
74893;BME280;63446;56.272;43.922;2023-04-15T02:46:23;102216.09;;;10.25;26.93
74893;BME280;63446;56.272;43.922;2023-04-15T02:48:50;102223.34;;;11.08;26.23
74893;BME280;63446;56.272;43.922;2023-04-15T02:51:20;102224.72;;;12.52;25.49
74893;BME280;63446;56.272;43.922;2023-04-15T02:53:48;102227.59;;;13.75;24.44
74893;BME280;63446;56.272;43.922;2023-04-15T02:56:15;102228.88;;;15.04;23.54
74893;BME280;63446;56.272;43.922;2023-04-15T02:58:43;102231.84;;;16.40;22.90
74893;BME280;63446;56.272;43.922;2023-04-15T03:01:11;102233.84;;;17.82;21.99
74893;BME280;63446;56.272;43.922;2023-04-15T03:03:40;102236.50;;;18.96;21.04
74893;BME280;63446;56.272;43.922;2023-04-15T03:06:07;102233.97;;;19.73;20.61
74893;BME280;63446;56.272;43.922;2023-04-15T03:08:35;102242.75;;;20.46;20.10
74893;BME280;63446;56.272;43.922;2023-04-15T03:11:02;102244.41;;;21.31;19.75
74893;BME280;63446;56.272;43.922;2023-04-15T03:13:29;102245.38;;;22.09;19.28
74893;BME280;63446;56.272;43.922;2023-04-15T03:15:58;102243.78;;;22.72;18.51
74893;BME280;63446;56.272;43.922;2023-04-15T03:18:27;102248.63;;;23.29;18.30
74893;BME280;63446;56.272;43.922;2023-04-15T03:20:55;102239.69;;;23.82;18.16
74893;BME280;63446;56.272;43.922;2023-04-15T03:23:24;102257.44;;;24.23;17.88
74893;BME280;63446;56.272;43.922;2023-04-15T03:25:51;102256.22;;;24.72;17.46
74893;BME280;63446;56.272;43.922;2023-04-15T03:28:20;102252.34;;;25.08;17.15
74893;BME280;63446;56.272;43.922;2023-04-15T03:30:48;102261.56;;;25.33;16.83
74893;BME280;63446;56.272;43.922;2023-04-15T03:33:15;102265.66;;;25.86;16.69
74893;BME280;63446;56.272;43.922;2023-04-15T03:35:42;102271.56;;;26.39;16.92
74893;BME280;63446;56.272;43.922;2023-04-15T03:38:09;102260.47;;;26.73;16.26
74893;BME280;63446;56.272;43.922;2023-04-15T03:40:39;102266.88;;;27.35;16.00
74893;BME280;63446;56.272;43.922;2023-04-15T03:43:06;102254.25;;;27.88;15.98
74893;BME280;63446;56.272;43.922;2023-04-15T03:45:33;102267.19;;;28.44;15.72
74893;BME280;63446;56.272;43.922;2023-04-15T03:48:01;102268.41;;;28.87;15.59
74893;BME280;63446;56.272;43.922;2023-04-15T03:50:28;102282.03;;;29.31;15.39
74893;BME280;63446;56.272;43.922;2023-04-15T03:52:54;102279.75;;;29.80;15.11
74893;BME280;63446;56.272;43.922;2023-04-15T03:55:22;102284.31;;;30.27;14.83
74893;BME280;63446;56.272;43.922;2023-04-15T03:57:48;102281.84;;;30.77;14.63
74893;BME280;63446;56.272;43.922;2023-04-15T04:00:15;102280.88;;;31.54;14.51
74893;BME280;63446;56.272;43.922;2023-04-15T04:02:43;102285.97;;;32.08;14.11
74893;BME280;63446;56.272;43.922;2023-04-15T04:05:11;102299.34;;;32.14;13.92
74893;BME280;63446;56.272;43.922;2023-04-15T04:07:38;102294.00;;;31.94;13.91
74893;BME280;63446;56.272;43.922;2023-04-15T04:10:05;102283.38;;;31.89;14.09
74893;BME280;63446;56.272;43.922;2023-04-15T04:12:32;102299.84;;;32.23;13.90
74893;BME280;63446;56.272;43.922;2023-04-15T04:14:59;102297.31;;;32.37;13.84
74893;BME280;63446;56.272;43.922;2023-04-15T04:17:27;102298.38;;;32.59;13.91
74893;BME280;63446;56.272;43.922;2023-04-15T04:19:54;102296.25;;;32.45;13.61
74893;BME280;63446;56.272;43.922;2023-04-15T04:22:22;102308.47;;;32.25;13.57
74893;BME280;63446;56.272;43.922;2023-04-15T04:24:49;102298.47;;;32.06;13.62
74893;BME280;63446;56.272;43.922;2023-04-15T04:27:17;102305.47;;;32.03;13.51
74893;BME280;63446;56.272;43.922;2023-04-15T04:29:43;102303.88;;;32.02;13.55
74893;BME280;63446;56.272;43.922;2023-04-15T04:32:13;102306.22;;;32.30;13.61
74893;BME280;63446;56.272;43.922;2023-04-15T04:34:40;102306.66;;;32.36;13.38
74893;BME280;63446;56.272;43.922;2023-04-15T04:37:07;102299.13;;;32.26;13.39
74893;BME280;63446;56.272;43.922;2023-04-15T04:39:34;102310.44;;;32.54;13.50
74893;BME280;63446;56.272;43.922;2023-04-15T04:42:01;102323.53;;;33.02;13.34
74893;BME280;63446;56.272;43.922;2023-04-15T04:44:28;102314.72;;;33.23;13.37
74893;BME280;63446;56.272;43.922;2023-04-15T04:46:56;102314.97;;;33.51;13.19
74893;BME280;63446;56.272;43.922;2023-04-15T04:49:23;102330.66;;;34.03;13.01
74893;BME280;63446;56.272;43.922;2023-04-15T04:51:50;102318.63;;;34.32;12.86
74893;BME280;63446;56.272;43.922;2023-04-15T04:54:17;102326.97;;;34.50;12.69
74893;BME280;63446;56.272;43.922;2023-04-15T04:56:44;102325.72;;;34.37;12.69
74893;BME280;63446;56.272;43.922;2023-04-15T04:59:11;102313.13;;;34.32;12.63
74893;BME280;63446;56.272;43.922;2023-04-15T05:01:38;102319.63;;;34.76;12.70
74893;BME280;63446;56.272;43.922;2023-04-15T05:04:05;102311.41;;;34.97;12.48
74893;BME280;63446;56.272;43.922;2023-04-15T05:06:33;102324.00;;;35.09;12.43
74893;BME280;63446;56.272;43.922;2023-04-15T05:09:03;102321.69;;;35.18;12.64
74893;BME280;63446;56.272;43.922;2023-04-15T05:11:30;102319.69;;;35.36;12.33
74893;BME280;63446;56.272;43.922;2023-04-15T05:13:57;102304.78;;;35.73;12.36
74893;BME280;63446;56.272;43.922;2023-04-15T05:16:27;102319.88;;;36.56;12.32
74893;BME280;63446;56.272;43.922;2023-04-15T05:18:54;102312.38;;;37.23;12.13
74893;BME280;63446;56.272;43.922;2023-04-15T05:21:22;102320.84;;;37.92;11.79
74893;BME280;63446;56.272;43.922;2023-04-15T05:23:49;102329.28;;;38.46;11.82
74893;BME280;63446;56.272;43.922;2023-04-15T05:26:17;102320.81;;;38.60;11.60
74893;BME280;63446;56.272;43.922;2023-04-15T05:28:44;102332.06;;;39.00;11.65
74893;BME280;63446;56.272;43.922;2023-04-15T05:31:11;102325.31;;;39.28;11.45
74893;BME280;63446;56.272;43.922;2023-04-15T05:33:38;102322.69;;;38.94;11.58
74893;BME280;63446;56.272;43.922;2023-04-15T05:36:06;102333.72;;;38.94;11.50
74893;BME280;63446;56.272;43.922;2023-04-15T05:38:34;102322.69;;;38.94;11.64
74893;BME280;63446;56.272;43.922;2023-04-15T05:41:02;102324.28;;;38.64;11.40
74893;BME280;63446;56.272;43.922;2023-04-15T05:43:29;102329.53;;;37.90;11.42
74893;BME280;63446;56.272;43.922;2023-04-15T05:45:56;102321.63;;;35.86;12.20
74893;BME280;63446;56.272;43.922;2023-04-15T05:48:23;102334.00;;;33.34;12.62
74893;BME280;63446;56.272;43.922;2023-04-15T05:50:50;102326.78;;;30.63;13.10
74893;BME280;63446;56.272;43.922;2023-04-15T05:53:17;102312.91;;;27.89;13.84
74893;BME280;63446;56.272;43.922;2023-04-15T05:55:44;102319.78;;;25.39;14.73
74893;BME280;63446;56.272;43.922;2023-04-15T05:58:11;102319.31;;;23.39;15.23
74893;BME280;63446;56.272;43.922;2023-04-15T06:00:38;102315.13;;;21.51;15.79
74893;BME280;63446;56.272;43.922;2023-04-15T06:03:06;102322.34;;;19.89;16.41
74893;BME280;63446;56.272;43.922;2023-04-15T06:05:33;102324.63;;;18.43;17.02
74893;BME280;63446;56.272;43.922;2023-04-15T06:08:00;102326.84;;;17.14;17.47
74893;BME280;63446;56.272;43.922;2023-04-15T06:10:28;102327.41;;;15.95;17.88
74893;BME280;63446;56.272;43.922;2023-04-15T06:12:55;102335.09;;;14.78;18.55
74893;BME280;63446;56.272;43.922;2023-04-15T06:15:22;102324.72;;;13.99;19.08
74893;BME280;63446;56.272;43.922;2023-04-15T06:17:49;102327.59;;;13.30;19.29
74893;BME280;63446;56.272;43.922;2023-04-15T06:20:16;102332.00;;;12.84;19.60
74893;BME280;63446;56.272;43.922;2023-04-15T06:22:43;102332.66;;;12.39;19.80
74893;BME280;63446;56.272;43.922;2023-04-15T06:25:10;102336.22;;;11.98;20.08
74893;BME280;63446;56.272;43.922;2023-04-15T06:27:37;102341.22;;;11.64;20.13
74893;BME280;63446;56.272;43.922;2023-04-15T06:30:07;102342.63;;;11.37;20.29
74893;BME280;63446;56.272;43.922;2023-04-15T06:32:35;102339.09;;;11.13;20.61
74893;BME280;63446;56.272;43.922;2023-04-15T06:35:36;102337.22;;;10.83;20.78
74893;BME280;63446;56.272;43.922;2023-04-15T06:38:10;102351.13;;;10.60;20.97
74893;BME280;63446;56.272;43.922;2023-04-15T06:40:40;102334.50;;;10.35;21.33
74893;BME280;63446;56.272;43.922;2023-04-15T06:43:07;102338.31;;;10.14;21.35
74893;BME280;63446;56.272;43.922;2023-04-15T06:45:34;102340.50;;;9.98;21.42
74893;BME280;63446;56.272;43.922;2023-04-15T06:48:02;102339.63;;;9.79;21.54
74893;BME280;63446;56.272;43.922;2023-04-15T06:50:29;102334.84;;;9.70;21.65
74893;BME280;63446;56.272;43.922;2023-04-15T06:52:57;102338.19;;;9.52;21.84
74893;BME280;63446;56.272;43.922;2023-04-15T06:55:24;102330.38;;;9.39;21.89
74893;BME280;63446;56.272;43.922;2023-04-15T06:57:51;102334.91;;;9.25;22.20
74893;BME280;63446;56.272;43.922;2023-04-15T07:00:18;102345.72;;;9.10;22.10
74893;BME280;63446;56.272;43.922;2023-04-15T07:02:46;102339.66;;;9.03;22.19
74893;BME280;63446;56.272;43.922;2023-04-15T07:05:13;102335.66;;;8.94;22.15
74893;BME280;63446;56.272;43.922;2023-04-15T07:07:40;102345.81;;;8.84;22.23
74893;BME280;63446;56.272;43.922;2023-04-15T07:10:08;102348.09;;;8.73;22.23
74893;BME280;63446;56.272;43.922;2023-04-15T07:12:35;102343.25;;;8.64;22.32
74893;BME280;63446;56.272;43.922;2023-04-15T07:15:03;102346.72;;;8.58;22.38
74893;BME280;63446;56.272;43.922;2023-04-15T07:17:30;102340.03;;;8.48;22.45
74893;BME280;63446;56.272;43.922;2023-04-15T07:19:57;102349.19;;;8.39;22.47
74893;BME280;63446;56.272;43.922;2023-04-15T07:22:24;102347.16;;;8.28;22.42
74893;BME280;63446;56.272;43.922;2023-04-15T07:24:51;102343.50;;;8.22;22.43
74893;BME280;63446;56.272;43.922;2023-04-15T07:27:18;102352.81;;;8.18;22.68
74893;BME280;63446;56.272;43.922;2023-04-15T07:29:45;102349.59;;;8.16;22.88
74893;BME280;63446;56.272;43.922;2023-04-15T07:32:12;102340.66;;;8.17;22.79
74893;BME280;63446;56.272;43.922;2023-04-15T07:34:39;102348.16;;;8.20;22.77
74893;BME280;63446;56.272;43.922;2023-04-15T07:37:07;102355.66;;;8.23;22.79
74893;BME280;63446;56.272;43.922;2023-04-15T07:39:35;102351.78;;;8.26;22.77
74893;BME280;63446;56.272;43.922;2023-04-15T07:42:02;102342.69;;;8.28;22.87
74893;BME280;63446;56.272;43.922;2023-04-15T07:44:30;102341.66;;;8.29;22.62
74893;BME280;63446;56.272;43.922;2023-04-15T07:46:57;102350.00;;;8.26;22.84
74893;BME280;63446;56.272;43.922;2023-04-15T07:49:24;102335.41;;;8.24;23.01
74893;BME280;63446;56.272;43.922;2023-04-15T07:51:52;102348.75;;;8.22;22.82
74893;BME280;63446;56.272;43.922;2023-04-15T07:54:18;102346.53;;;8.26;22.87
74893;BME280;63446;56.272;43.922;2023-04-15T07:56:45;102339.84;;;8.30;22.78
74893;BME280;63446;56.272;43.922;2023-04-15T07:59:12;102335.41;;;8.30;22.99
74893;BME280;63446;56.272;43.922;2023-04-15T08:01:41;102345.72;;;8.32;22.87
74893;BME280;63446;56.272;43.922;2023-04-15T08:04:08;102350.41;;;8.23;23.02
74893;BME280;63446;56.272;43.922;2023-04-15T08:06:35;102357.09;;;8.19;22.94
74893;BME280;63446;56.272;43.922;2023-04-15T08:09:05;102335.00;;;8.14;23.06
74893;BME280;63446;56.272;43.922;2023-04-15T08:11:33;102334.59;;;8.17;23.00
74893;BME280;63446;56.272;43.922;2023-04-15T08:14:01;102341.88;;;8.21;23.10
74893;BME280;63446;56.272;43.922;2023-04-15T08:16:28;102330.13;;;8.30;23.08
74893;BME280;63446;56.272;43.922;2023-04-15T08:18:55;102325.66;;;8.38;23.06
74893;BME280;63446;56.272;43.922;2023-04-15T08:21:23;102330.34;;;8.42;22.97
74893;BME280;63446;56.272;43.922;2023-04-15T08:23:52;102326.47;;;8.45;22.94
74893;BME280;63446;56.272;43.922;2023-04-15T08:26:20;102333.34;;;8.52;22.96
74893;BME280;63446;56.272;43.922;2023-04-15T08:28:47;102325.66;;;8.58;22.85
74893;BME280;63446;56.272;43.922;2023-04-15T08:31:17;102331.91;;;8.63;22.76
74893;BME280;63446;56.272;43.922;2023-04-15T08:33:44;102336.78;;;8.60;22.88
74893;BME280;63446;56.272;43.922;2023-04-15T08:36:14;102332.53;;;8.65;22.69
74893;BME280;63446;56.272;43.922;2023-04-15T08:38:41;102330.47;;;8.67;22.59
74893;BME280;63446;56.272;43.922;2023-04-15T08:41:17;102331.91;;;8.70;22.80
74893;BME280;63446;56.272;43.922;2023-04-15T08:43:56;102323.13;;;8.76;22.85
74893;BME280;63446;56.272;43.922;2023-04-15T08:46:24;102322.09;;;8.84;22.89
74893;BME280;63446;56.272;43.922;2023-04-15T08:48:55;102332.00;;;8.95;22.97
74893;BME280;63446;56.272;43.922;2023-04-15T08:55:51;102328.28;;;9.09;22.76
74893;BME280;63446;56.272;43.922;2023-04-15T09:02:31;102318.28;;;9.18;22.77
74893;BME280;63446;56.272;43.922;2023-04-15T09:09:23;102322.09;;;9.28;22.83
74893;BME280;63446;56.272;43.922;2023-04-15T09:16:05;102328.56;;;9.33;22.82
74893;BME280;63446;56.272;43.922;2023-04-15T09:22:59;102321.19;;;9.41;22.68
74893;BME280;63446;56.272;43.922;2023-04-15T09:29:40;102319.56;;;9.47;22.77
74893;BME280;63446;56.272;43.922;2023-04-15T09:41:15;102306.78;;;9.44;22.76
74893;BME280;63446;56.272;43.922;2023-04-15T09:50:50;102311.03;;;9.45;23.05
74893;BME280;63446;56.272;43.922;2023-04-15T09:53:20;102316.50;;;9.50;23.00
74893;BME280;63446;56.272;43.922;2023-04-15T09:55:52;102320.31;;;9.54;23.35
74893;BME280;63446;56.272;43.922;2023-04-15T09:58:22;102310.69;;;9.66;23.53
74893;BME280;63446;56.272;43.922;2023-04-15T10:00:50;102311.03;;;9.76;23.50
74893;BME280;63446;56.272;43.922;2023-04-15T10:03:25;102311.56;;;9.85;23.35
74893;BME280;63446;56.272;43.922;2023-04-15T10:05:55;102306.66;;;9.89;23.31
74893;BME280;63446;56.272;43.922;2023-04-15T10:08:24;102314.34;;;9.90;23.13
74893;BME280;63446;56.272;43.922;2023-04-15T10:10:52;102310.91;;;9.90;23.33
74893;BME280;63446;56.272;43.922;2023-04-15T10:13:22;102308.53;;;9.82;23.45
74893;BME280;63446;56.272;43.922;2023-04-15T10:18:25;102306.47;;;9.84;23.63
74893;BME280;63446;56.272;43.922;2023-04-15T10:20:52;102312.94;;;9.88;23.60
74893;BME280;63446;56.272;43.922;2023-04-15T10:23:22;102310.69;;;9.91;23.76
74893;BME280;63446;56.272;43.922;2023-04-15T10:25:51;102306.38;;;9.97;23.84
74893;BME280;63446;56.272;43.922;2023-04-15T10:28:21;102317.47;;;10.06;23.75
74893;BME280;63446;56.272;43.922;2023-04-15T10:30:48;102303.03;;;10.08;23.71
74893;BME280;63446;56.272;43.922;2023-04-15T10:33:18;102308.88;;;10.10;23.74
74893;BME280;63446;56.272;43.922;2023-04-15T10:35:48;102308.88;;;10.10;23.64
74893;BME280;63446;56.272;43.922;2023-04-15T10:38:37;102299.13;;;10.11;23.67
74893;BME280;63446;56.272;43.922;2023-04-15T10:41:17;102298.50;;;10.15;23.75
74893;BME280;63446;56.272;43.922;2023-04-15T10:44:00;102299.66;;;10.19;23.55
74893;BME280;63446;56.272;43.922;2023-04-15T10:51:42;102297.59;;;10.21;23.30
74893;BME280;63446;56.272;43.922;2023-04-15T10:54:14;102293.22;;;10.15;23.24
74893;BME280;63446;56.272;43.922;2023-04-15T10:56:44;102296.84;;;10.14;23.30
74893;BME280;63446;56.272;43.922;2023-04-15T10:59:12;102286.28;;;10.14;23.33
74893;BME280;63446;56.272;43.922;2023-04-15T11:02:11;102280.00;;;10.15;23.44
74893;BME280;63446;56.272;43.922;2023-04-15T11:04:56;102279.78;;;10.17;23.43
74893;BME280;63446;56.272;43.922;2023-04-15T11:12:44;102273.09;;;10.14;23.29
74893;BME280;63446;56.272;43.922;2023-04-15T11:15:32;102279.03;;;10.10;23.22
74893;BME280;63446;56.272;43.922;2023-04-15T11:18:18;102278.44;;;10.08;23.19
74893;BME280;63446;56.272;43.922;2023-04-15T11:20:47;102278.88;;;10.05;23.15
74893;BME280;63446;56.272;43.922;2023-04-15T11:23:18;102273.00;;;10.02;23.02
74893;BME280;63446;56.272;43.922;2023-04-15T11:25:46;102278.50;;;10.01;23.17
74893;BME280;63446;56.272;43.922;2023-04-15T11:28:14;102271.63;;;10.00;22.98
74893;BME280;63446;56.272;43.922;2023-04-15T11:30:41;102266.91;;;10.02;23.24
74893;BME280;63446;56.272;43.922;2023-04-15T11:33:10;102266.53;;;9.98;23.24
74893;BME280;63446;56.272;43.922;2023-04-15T11:35:41;102258.97;;;10.02;23.13
74893;BME280;63446;56.272;43.922;2023-04-15T11:38:11;102260.97;;;10.07;23.32
74893;BME280;63446;56.272;43.922;2023-04-15T11:40:39;102258.69;;;10.10;23.16
74893;BME280;63446;56.272;43.922;2023-04-15T11:43:14;102251.56;;;10.11;23.20
74893;BME280;63446;56.272;43.922;2023-04-15T11:45:55;102253.22;;;10.12;23.10
74893;BME280;63446;56.272;43.922;2023-04-15T11:48:24;102241.59;;;10.13;23.14
74893;BME280;63446;56.272;43.922;2023-04-15T11:51:00;102235.28;;;10.14;23.21
74893;BME280;63446;56.272;43.922;2023-04-15T11:53:47;102237.13;;;10.13;23.26
74893;BME280;63446;56.272;43.922;2023-04-15T11:56:24;102228.75;;;10.16;23.15
74893;BME280;63446;56.272;43.922;2023-04-15T11:58:56;102223.47;;;10.16;23.13
74893;BME280;63446;56.272;43.922;2023-04-15T12:01:36;102236.19;;;10.26;23.32
74893;BME280;63446;56.272;43.922;2023-04-15T12:04:11;102229.47;;;10.30;23.30
74893;BME280;63446;56.272;43.922;2023-04-15T12:06:37;102237.16;;;10.32;22.99
74893;BME280;63446;56.272;43.922;2023-04-15T12:09:09;102235.56;;;10.31;23.03
74893;BME280;63446;56.272;43.922;2023-04-15T12:11:50;102232.91;;;10.31;22.92
74893;BME280;63446;56.272;43.922;2023-04-15T12:14:28;102233.34;;;10.27;22.96
74893;BME280;63446;56.272;43.922;2023-04-15T12:17:05;102234.38;;;10.26;23.02
74893;BME280;63446;56.272;43.922;2023-04-15T12:19:39;102227.47;;;10.25;23.02
74893;BME280;63446;56.272;43.922;2023-04-15T12:22:11;102216.91;;;10.25;23.21
74893;BME280;63446;56.272;43.922;2023-04-15T12:24:39;102220.53;;;10.24;23.10
74893;BME280;63446;56.272;43.922;2023-04-15T12:27:07;102212.84;;;10.23;23.17
74893;BME280;63446;56.272;43.922;2023-04-15T12:29:35;102216.09;;;10.25;23.34
74893;BME280;63446;56.272;43.922;2023-04-15T12:32:12;102220.13;;;10.27;23.19
74893;BME280;63446;56.272;43.922;2023-04-15T12:34:41;102220.34;;;10.26;23.18
74893;BME280;63446;56.272;43.922;2023-04-15T12:37:09;102208.75;;;10.27;23.14
74893;BME280;63446;56.272;43.922;2023-04-15T12:39:41;102207.97;;;10.26;23.09
74893;BME280;63446;56.272;43.922;2023-04-15T12:42:08;102211.63;;;10.25;23.16
74893;BME280;63446;56.272;43.922;2023-04-15T12:44:35;102212.22;;;10.27;23.34
74893;BME280;63446;56.272;43.922;2023-04-15T12:47:02;102210.59;;;10.26;23.12
74893;BME280;63446;56.272;43.922;2023-04-15T12:49:30;102214.47;;;10.24;23.13
74893;BME280;63446;56.272;43.922;2023-04-15T12:51:59;102210.81;;;10.25;23.21
74893;BME280;63446;56.272;43.922;2023-04-15T12:54:26;102207.34;;;10.24;23.24
74893;BME280;63446;56.272;43.922;2023-04-15T12:56:52;102214.09;;;10.20;23.16
74893;BME280;63446;56.272;43.922;2023-04-15T12:59:19;102213.84;;;10.22;23.18
74893;BME280;63446;56.272;43.922;2023-04-15T13:01:47;102211.00;;;10.23;23.24
74893;BME280;63446;56.272;43.922;2023-04-15T13:04:14;102219.75;;;10.24;23.15
74893;BME280;63446;56.272;43.922;2023-04-15T13:06:42;102215.25;;;10.24;23.33
74893;BME280;63446;56.272;43.922;2023-04-15T13:09:10;102209.97;;;10.24;23.21
74893;BME280;63446;56.272;43.922;2023-04-15T13:11:40;102209.97;;;10.24;23.00
74893;BME280;63446;56.272;43.922;2023-04-15T13:14:16;102205.94;;;10.22;23.08
74893;BME280;63446;56.272;43.922;2023-04-15T13:16:59;102205.94;;;10.22;23.06
74893;BME280;63446;56.272;43.922;2023-04-15T13:19:55;102201.91;;;10.19;23.01
74893;BME280;63446;56.272;43.922;2023-04-15T13:22:49;102199.03;;;10.21;23.06
74893;BME280;63446;56.272;43.922;2023-04-15T13:25:43;102205.13;;;10.21;23.26
74893;BME280;63446;56.272;43.922;2023-04-15T13:28:10;102213.06;;;10.21;23.16
74893;BME280;63446;56.272;43.922;2023-04-15T13:30:38;102198.66;;;10.17;23.07
74893;BME280;63446;56.272;43.922;2023-04-15T13:33:04;102195.00;;;10.18;23.13
74893;BME280;63446;56.272;43.922;2023-04-15T13:35:34;102206.97;;;10.21;23.16
74893;BME280;63446;56.272;43.922;2023-04-15T13:38:00;102198.84;;;10.22;23.19
74893;BME280;63446;56.272;43.922;2023-04-15T13:40:26;102196.41;;;10.21;23.10
74893;BME280;63446;56.272;43.922;2023-04-15T13:42:52;102199.84;;;10.21;23.05
74893;BME280;63446;56.272;43.922;2023-04-15T13:45:19;102202.47;;;10.21;23.18
74893;BME280;63446;56.272;43.922;2023-04-15T13:47:45;102194.78;;;10.20;23.08